Time;durP1;ratioP1;P1;durP2;ratioP2;P2;SDS_P1;SDS_P2;PMS_P1;PMS_P2;Temp;Humidity;BMP_temperature;BMP_pressure;BME280_temperature;BME280_humidity;BME280_pressure;Samples;Min_cycle;Max_cycle;Signal;HPM_P1;HPM_P2
2022/10/14 00:00:12;;;;;;;10.93;5.13;;;;;;;11.83;100.00;100569.17;1712856;82;21526;-61
2022/10/14 00:02:38;;;;;;;10.70;5.20;;;;;;;11.82;100.00;100568.30;1710061;82;21506;-62
2022/10/14 00:05:07;;;;;;;12.03;5.92;;;;;;;11.84;100.00;100565.15;1707280;82;21757;-62
2022/10/14 00:07:37;;;;;;;10.60;6.78;;;;;;;11.79;100.00;100564.47;1724009;82;21391;-62
2022/10/14 00:10:04;;;;;;;11.00;6.05;;;;;;;11.76;100.00;100556.65;1723994;82;21564;-62
2022/10/14 00:12:33;;;;;;;8.60;5.22;;;;;;;11.72;100.00;100558.98;1711012;82;21554;-62
2022/10/14 00:14:59;;;;;;;8.18;4.17;;;;;;;11.72;100.00;100558.13;1727868;82;21498;-62
2022/10/14 00:17:26;;;;;;;3.93;2.90;;;;;;;11.72;100.00;100558.98;1716403;82;21869;-62
2022/10/14 00:19:55;;;;;;;6.60;2.92;;;;;;;11.72;100.00;100562.09;1710026;82;21577;-62
2022/10/14 00:22:22;;;;;;;5.10;2.87;;;;;;;11.77;100.00;100557.50;1708090;82;21471;-68
2022/10/14 00:24:48;;;;;;;3.80;3.02;;;;;;;11.85;100.00;100552.86;1720186;82;21499;-62
2022/10/14 00:27:15;;;;;;;6.60;3.85;;;;;;;11.92;100.00;100553.06;1712574;82;21601;-61
2022/10/14 00:29:42;;;;;;;7.83;4.53;;;;;;;11.87;100.00;100554.52;1708907;82;21863;-61
2022/10/14 00:32:08;;;;;;;10.05;4.95;;;;;;;11.80;100.00;100552.99;1706055;82;21616;-61
2022/10/14 00:34:34;;;;;;;5.80;4.53;;;;;;;11.72;100.00;100564.25;1707650;82;21464;-61
2022/10/14 00:37:01;;;;;;;9.20;4.70;;;;;;;11.65;100.00;100564.05;1711472;82;20958;-62
2022/10/14 00:39:28;;;;;;;6.70;4.22;;;;;;;11.67;100.00;100558.27;1693831;82;21552;-62
2022/10/14 00:41:56;;;;;;;5.95;3.67;;;;;;;11.76;100.00;100566.34;1687066;83;21849;-61
2022/10/14 00:44:29;;;;;;;6.47;3.75;;;;;;;11.83;100.00;100555.54;1696644;83;21396;-61
2022/10/14 00:46:55;;;;;;;4.83;3.05;;;;;;;11.88;100.00;100556.25;1686231;83;20955;-61
2022/10/14 00:49:40;;;;;;;8.73;3.60;;;;;;;11.95;100.00;100551.66;1681735;83;21558;-62
2022/10/14 00:52:13;;;;;;;4.97;3.75;;;;;;;11.92;100.00;100551.75;1687832;83;21046;-61
2022/10/14 00:54:51;;;;;;;7.25;4.12;;;;;;;11.82;100.00;100554.27;1697056;83;21743;-61
2022/10/14 00:57:17;;;;;;;8.53;4.20;;;;;;;11.74;100.00;100554.52;1689626;83;21538;-62
2022/10/14 00:59:44;;;;;;;6.15;3.90;;;;;;;11.69;100.00;100552.02;1628939;86;21451;-62
2022/10/14 01:02:10;;;;;;;7.95;3.87;;;;;;;11.72;100.00;100544.50;1648370;85;21600;-61
2022/10/14 01:04:39;;;;;;;7.17;4.05;;;;;;;11.77;100.00;100537.31;1635408;86;21557;-62
2022/10/14 01:07:48;;;;;;;6.83;4.05;;;;;;;11.80;100.00;100537.65;1641810;85;21945;-62
2022/10/14 01:10:45;;;;;;;7.72;3.98;;;;;;;11.77;100.00;100539.06;1641995;85;21542;-62
2022/10/14 01:13:33;;;;;;;7.25;4.35;;;;;;;11.66;100.00;100538.97;1646734;84;21522;-62
2022/10/14 01:16:26;;;;;;;6.83;4.30;;;;;;;11.62;100.00;100533.84;1651396;84;21515;-62
2022/10/14 01:21:06;;;;;;;8.45;4.67;;;;;;;11.14;100.00;100545.89;1793410;78;23190;-65
2022/10/14 01:24:01;;;;;;;6.42;4.30;;;;;;;11.54;100.00;100543.77;1772055;80;21411;-62
2022/10/14 01:26:53;;;;;;;8.85;4.80;;;;;;;11.58;100.00;100529.13;1748941;80;21807;-62
2022/10/14 01:30:14;;;;;;;6.47;4.62;;;;;;;11.59;100.00;100530.86;1772348;80;21533;-62
2022/10/14 01:32:49;;;;;;;6.42;4.87;;;;;;;11.61;100.00;100532.14;1762096;80;21475;-62
2022/10/14 01:35:24;;;;;;;8.50;4.30;;;;;;;11.59;100.00;100530.02;1770461;80;21501;-63
2022/10/14 01:37:59;;;;;;;7.28;4.30;;;;;;;11.61;100.00;100530.35;1760919;80;21620;-63
2022/10/14 01:40:35;;;;;;;7.20;3.80;;;;;;;11.63;100.00;100526.36;1769131;80;21811;-63
2022/10/14 01:43:02;;;;;;;8.58;4.05;;;;;;;11.61;100.00;100529.50;1730756;80;21593;-63
2022/10/14 01:45:30;;;;;;;6.75;3.77;;;;;;;11.54;100.00;100542.00;1769284;80;21477;-64
2022/10/14 01:47:57;;;;;;;6.03;3.95;;;;;;;11.47;100.00;100528.61;1754665;80;21147;-63
2022/10/14 01:50:26;;;;;;;6.58;3.80;;;;;;;11.49;100.00;100530.77;1751865;80;21541;-63
2022/10/14 01:53:06;;;;;;;5.30;3.73;;;;;;;11.41;100.00;100530.98;1731443;80;21949;-64
2022/10/14 01:55:37;;;;;;;7.97;4.00;;;;;;;11.41;100.00;100530.98;1768317;80;21491;-62
2022/10/14 01:58:06;;;;;;;3.67;3.27;;;;;;;11.35;100.00;100526.39;1772612;80;21493;-62
2022/10/14 02:00:34;;;;;;;8.33;3.72;;;;;;;11.24;100.00;100530.20;1768043;80;21442;-62
2022/10/14 02:03:01;;;;;;;6.00;3.77;;;;;;;11.11;100.00;100526.23;1774917;80;21494;-62
2022/10/14 02:05:57;;;;;;;6.62;3.47;;;;;;;11.01;100.00;100525.66;1761746;80;21883;-62
2022/10/14 02:08:30;;;;;;;6.87;3.37;;;;;;;11.02;100.00;100527.41;1753955;80;21486;-62
2022/10/14 02:11:17;;;;;;;8.15;3.92;;;;;;;10.97;100.00;100521.41;1759844;80;21667;-63
2022/10/14 02:14:04;;;;;;;5.00;3.87;;;;;;;10.91;100.00;100519.83;1753341;80;21551;-65
2022/10/14 02:16:46;;;;;;;5.85;3.58;;;;;;;10.85;100.00;100513.44;1770455;80;21545;-62
2022/10/14 02:19:38;;;;;;;5.95;3.60;;;;;;;10.87;100.00;100518.20;1762728;80;21462;-62
2022/10/14 02:22:13;;;;;;;7.40;4.17;;;;;;;10.84;100.00;100521.38;1771634;80;21467;-62
2022/10/14 02:24:44;;;;;;;7.12;4.20;;;;;;;10.79;100.00;100518.86;1747353;80;21517;-62
2022/10/14 02:27:14;;;;;;;4.00;3.52;;;;;;;10.84;100.00;100517.43;1774900;80;21600;-62
2022/10/14 02:29:42;;;;;;;4.12;3.62;;;;;;;10.85;100.00;100513.44;1770847;80;21426;-62
2022/10/14 02:32:10;;;;;;;6.17;3.45;;;;;;;10.82;100.00;100518.78;1756400;80;21795;-62
2022/10/14 02:34:37;;;;;;;4.83;3.65;;;;;;;10.81;100.00;100517.08;1754393;80;21631;-62
2022/10/14 02:37:05;;;;;;;4.30;3.37;;;;;;;10.79;100.00;100514.92;1767026;80;21557;-62
2022/10/14 02:39:38;;;;;;;7.17;3.40;;;;;;;10.78;100.00;100515.84;1769826;80;21518;-62
2022/10/14 02:42:04;;;;;;;4.47;3.67;;;;;;;10.73;100.00;100515.11;1763696;80;21605;-62
2022/10/14 02:44:33;;;;;;;4.92;3.62;;;;;;;10.69;100.00;100518.74;1763140;80;22076;-62
2022/10/14 02:46:59;;;;;;;5.25;3.20;;;;;;;10.60;100.00;100515.06;1770235;80;21486;-62
2022/10/14 02:49:28;;;;;;;5.33;3.60;;;;;;;10.56;100.00;100522.17;1756011;80;21494;-62
2022/10/14 02:51:54;;;;;;;3.75;3.35;;;;;;;10.50;100.00;100517.95;1767859;80;21616;-63
2022/10/14 02:54:21;;;;;;;5.15;3.72;;;;;;;10.47;100.00;100520.69;1764066;80;21537;-62
2022/10/14 02:56:48;;;;;;;5.05;3.22;;;;;;;10.42;100.00;100516.00;1759532;80;22218;-62
2022/10/14 02:59:14;;;;;;;5.75;3.70;;;;;;;10.36;100.00;100517.93;1767927;80;21583;-62
2022/10/14 03:01:41;;;;;;;4.20;3.75;;;;;;;10.38;100.00;100520.06;1770720;80;21592;-63
2022/10/14 03:04:08;;;;;;;4.97;3.47;;;;;;;10.41;100.00;100522.16;1765430;80;21495;-63
2022/10/14 03:06:37;;;;;;;4.90;3.47;;;;;;;10.41;100.00;100520.84;1769484;80;20923;-62
2022/10/14 03:09:04;;;;;;;4.08;3.33;;;;;;;10.38;100.00;100527.52;1758835;80;21803;-62
2022/10/14 03:11:31;;;;;;;5.35;3.27;;;;;;;10.40;100.00;100528.80;1739846;80;21549;-62
2022/10/14 03:14:00;;;;;;;5.08;3.30;;;;;;;10.38;100.00;100521.38;1770575;80;21407;-62
2022/10/14 03:16:26;;;;;;;5.42;4.12;;;;;;;10.37;100.00;100516.58;1760412;80;21063;-62
2022/10/14 03:18:53;;;;;;;6.53;3.87;;;;;;;10.42;100.00;100520.41;1758873;80;21705;-62
2022/10/14 03:21:22;;;;;;;5.17;3.90;;;;;;;10.46;100.00;100524.67;1731967;82;21400;-62
2022/10/14 03:23:49;;;;;;;6.95;4.35;;;;;;;10.51;100.00;100523.64;1729198;82;21002;-62
2022/10/14 03:26:17;;;;;;;6.70;4.47;;;;;;;10.51;100.00;100520.16;1755304;80;21568;-62
2022/10/14 03:28:46;;;;;;;6.90;4.85;;;;;;;10.49;100.00;100516.67;1751114;80;20995;-62
2022/10/14 03:31:15;;;;;;;5.50;4.25;;;;;;;10.48;100.00;100516.28;1765234;80;21611;-62
2022/10/14 03:33:53;;;;;;;9.85;4.78;;;;;;;10.54;100.00;100512.62;1759104;80;21885;-62
2022/10/14 03:36:19;;;;;;;7.28;5.00;;;;;;;10.54;100.00;100520.51;1757948;80;21510;-61
2022/10/14 03:38:53;;;;;;;8.88;5.55;;;;;;;10.58;100.00;100522.14;1755105;80;21583;-63
2022/10/14 03:41:21;;;;;;;6.30;5.42;;;;;;;10.61;100.00;100526.86;1758149;80;21819;-61
2022/10/14 03:43:48;;;;;;;8.03;5.10;;;;;;;10.62;100.00;100515.88;1761957;80;21479;-61
2022/10/14 03:46:17;;;;;;;11.18;6.30;;;;;;;10.61;100.00;100520.75;1764266;80;21494;-61
2022/10/14 03:48:44;;;;;;;7.33;5.45;;;;;;;10.62;100.00;100519.36;1724964;80;21442;-62
2022/10/14 03:51:12;;;;;;;5.80;4.90;;;;;;;10.62;100.00;100519.82;1759351;80;21489;-63
2022/10/14 03:53:41;;;;;;;6.78;4.83;;;;;;;10.65;100.00;100519.28;1739761;80;22530;-61
2022/10/14 03:56:08;;;;;;;5.85;4.50;;;;;;;10.69;100.00;100516.11;1760052;80;21538;-61
2022/10/14 03:58:36;;;;;;;;;;;;;;;10.66;100.00;100513.56;1757206;80;21807;-61
2022/10/14 04:01:04;;;;;;;4.70;4.20;;;;;;;10.58;100.00;100519.05;1757417;80;20197;-61
2022/10/14 04:03:40;;;;;;;5.65;3.75;;;;;;;10.60;100.00;100519.01;1735217;80;21017;-61
2022/10/14 04:06:09;;;;;;;6.42;4.33;;;;;;;10.61;100.00;100522.06;1756735;80;21022;-60
2022/10/14 04:08:36;;;;;;;6.20;4.30;;;;;;;10.60;100.00;100522.95;1755317;80;21553;-60
2022/10/14 04:11:06;;;;;;;6.87;4.10;;;;;;;10.49;100.00;100516.25;1722141;82;22045;-61
2022/10/14 04:13:35;;;;;;;5.75;4.22;;;;;;;10.46;100.00;100520.73;1759047;80;21521;-60
2022/10/14 04:16:06;;;;;;;5.37;4.20;;;;;;;10.42;100.00;100519.09;1751309;80;21592;-60
2022/10/14 04:18:36;;;;;;;4.90;4.35;;;;;;;10.38;100.00;100525.31;1758432;80;21517;-60
2022/10/14 04:21:06;;;;;;;6.53;4.40;;;;;;;10.35;100.00;100528.05;1754145;80;21614;-61
2022/10/14 04:23:34;;;;;;;5.67;4.12;;;;;;;10.36;100.00;100522.76;1756131;80;21494;-61
2022/10/14 04:26:08;;;;;;;5.15;4.17;;;;;;;10.37;100.00;100523.16;1746235;80;21648;-61
2022/10/14 04:28:36;;;;;;;7.55;3.98;;;;;;;10.38;100.00;100527.52;1745949;80;21517;-60
2022/10/14 04:31:05;;;;;;;6.92;4.55;;;;;;;10.36;100.00;100527.13;1757267;80;21570;-60
2022/10/14 04:33:33;;;;;;;8.08;4.72;;;;;;;10.35;100.00;100521.02;1747264;80;21593;-60
2022/10/14 04:36:05;;;;;;;4.92;4.30;;;;;;;10.34;100.00;100527.20;1755910;80;21766;-61
2022/10/14 04:38:34;;;;;;;6.67;4.92;;;;;;;10.32;100.00;100525.03;1753007;80;21596;-60
2022/10/14 04:41:02;;;;;;;6.20;5.08;;;;;;;10.35;100.00;100524.11;1752897;80;20986;-61
2022/10/14 04:43:29;;;;;;;8.00;5.47;;;;;;;10.37;100.00;100528.87;1756112;80;21435;-61
2022/10/14 04:45:56;;;;;;;7.92;5.60;;;;;;;10.31;100.00;100524.64;1760545;80;21533;-61
2022/10/14 04:48:25;;;;;;;8.40;5.62;;;;;;;10.31;100.00;100524.64;1755196;80;21785;-61
2022/10/14 04:50:52;;;;;;;10.23;5.83;;;;;;;10.37;100.00;100529.72;1767499;80;21474;-61
2022/10/14 04:53:20;;;;;;;7.47;6.65;;;;;;;10.40;100.00;100527.02;1737386;80;21478;-61
2022/10/14 04:55:50;;;;;;;8.85;6.55;;;;;;;10.45;100.00;100527.77;1748198;80;21560;-62
2022/10/14 04:58:17;;;;;;;10.03;6.37;;;;;;;10.47;100.00;100536.47;1753540;80;21533;-61
2022/10/14 05:00:45;;;;;;;8.28;7.00;;;;;;;10.49;100.00;100538.59;1763115;80;21909;-61
2022/10/14 05:03:20;;;;;;;9.08;6.70;;;;;;;10.51;100.00;100535.47;1725909;80;20930;-60
2022/10/14 05:05:46;;;;;;;9.23;7.12;;;;;;;10.56;100.00;100537.95;1768825;80;21443;-61
2022/10/14 05:08:14;;;;;;;9.13;6.50;;;;;;;10.59;100.00;100539.66;1757300;80;21626;-61
2022/10/14 05:10:44;;;;;;;9.78;5.78;;;;;;;10.60;100.00;100534.33;1730260;82;21550;-61
2022/10/14 05:13:14;;;;;;;7.37;5.50;;;;;;;10.62;100.00;100543.03;1706265;83;21571;-60
2022/10/14 05:15:46;;;;;;;5.75;5.25;;;;;;;10.65;100.00;100546.05;1701690;83;21052;-60
2022/10/14 05:18:15;;;;;;;8.63;4.90;;;;;;;10.61;100.00;100542.64;1703739;83;21622;-60
2022/10/14 05:20:49;;;;;;;7.15;5.15;;;;;;;10.56;100.00;100547.16;1701187;83;21439;-60
2022/10/14 05:23:18;;;;;;;7.35;5.03;;;;;;;10.55;100.00;100538.87;1699728;83;21583;-59
2022/10/14 05:25:45;;;;;;;9.30;5.08;;;;;;;10.61;100.00;100544.41;1689613;83;21929;-60
2022/10/14 05:28:14;;;;;;;8.45;5.58;;;;;;;10.65;100.00;100543.41;1695724;83;21655;-59
2022/10/14 05:30:41;;;;;;;5.58;4.78;;;;;;;10.74;100.00;100550.16;1698433;83;21591;-60
2022/10/14 05:33:08;;;;;;;10.70;5.22;;;;;;;10.77;100.00;100550.93;1669770;84;21584;-60
2022/10/14 05:35:37;;;;;;;7.65;5.37;;;;;;;10.82;100.00;100547.72;1696082;83;21539;-60
2022/10/14 05:38:05;;;;;;;5.08;4.58;;;;;;;10.91;100.00;100547.91;1687288;83;21891;-60
2022/10/14 05:40:33;;;;;;;6.60;5.10;;;;;;;11.00;100.00;100550.70;1698865;83;21441;-61
2022/10/14 05:43:00;;;;;;;4.77;4.00;;;;;;;11.08;100.00;100551.36;1698866;83;21416;-61
2022/10/14 05:45:28;;;;;;;;;;;;;;;11.12;100.00;100555.61;1704900;83;21479;-60
2022/10/14 05:47:55;;;;;;;6.35;4.50;;;;;;;11.07;100.00;100558.83;1693075;83;20449;-62
2022/10/14 05:50:22;;;;;;;5.95;4.15;;;;;;;11.12;100.00;100558.70;1750036;80;22083;-60
2022/10/14 05:52:49;;;;;;;8.03;5.60;;;;;;;11.20;100.00;100564.12;1759138;80;21530;-61
2022/10/14 05:55:18;;;;;;;10.08;5.30;;;;;;;11.28;100.00;100562.57;1715177;82;21546;-60
2022/10/14 05:57:46;;;;;;;7.80;5.78;;;;;;;11.38;100.00;100561.85;1711211;82;21684;-62
2022/10/14 06:00:18;;;;;;;14.10;5.50;;;;;;;11.45;100.00;100554.14;1721090;82;21555;-62
2022/10/14 06:02:46;;;;;;;9.05;6.03;;;;;;;11.50;100.00;100556.18;1753838;80;21628;-61
2022/10/14 06:05:14;;;;;;;9.58;5.97;;;;;;;11.55;100.00;100558.69;1752226;80;21608;-60
2022/10/14 06:07:41;;;;;;;9.08;5.65;;;;;;;11.60;100.00;100558.94;1751787;80;21435;-61
2022/10/14 06:10:10;;;;;;;8.60;6.30;;;;;;;11.67;100.00;100564.39;1755644;80;21003;-61
2022/10/14 06:12:37;;;;;;;7.53;5.28;;;;;;;11.77;100.00;100564.09;1743864;80;21514;-61
2022/10/14 06:15:05;;;;;;;11.23;5.83;;;;;;;11.82;100.00;100570.08;1748187;80;21776;-61
2022/10/14 06:17:32;;;;;;;10.80;6.78;;;;;;;11.85;100.00;100567.35;1748209;80;21436;-61
2022/10/14 06:20:00;;;;;;;11.55;7.17;;;;;;;11.90;100.00;100573.34;1751681;79;21443;-61
2022/10/14 06:22:27;;;;;;;7.90;7.10;;;;;;;11.98;100.00;100575.71;1757258;80;21006;-61
2022/10/14 06:24:54;;;;;;;10.23;7.00;;;;;;;12.01;100.00;100572.98;1764544;80;21467;-61
2022/10/14 06:27:21;;;;;;;9.48;7.20;;;;;;;11.98;100.00;100577.92;1754517;80;21755;-61
2022/10/14 06:29:48;;;;;;;8.80;6.27;;;;;;;11.91;100.00;100574.22;1744004;80;20998;-62
2022/10/14 06:32:15;;;;;;;10.50;7.33;;;;;;;11.88;100.00;100579.09;1745180;80;21520;-62
2022/10/14 06:34:41;;;;;;;11.80;7.85;;;;;;;11.90;100.00;100588.30;1752314;80;21439;-61
2022/10/14 06:37:08;;;;;;;8.35;7.00;;;;;;;11.97;100.00;100579.28;1749130;80;20999;-61
2022/10/14 06:39:35;;;;;;;10.88;7.33;;;;;;;12.04;100.00;100578.16;1752645;80;21855;-61
2022/10/14 06:42:02;;;;;;;11.00;7.55;;;;;;;12.14;100.00;100574.28;1750481;80;20963;-62
2022/10/14 06:44:29;;;;;;;14.00;8.43;;;;;;;12.24;100.00;100574.82;1749060;80;21458;-61
2022/10/14 06:46:56;;;;;;;12.35;8.73;;;;;;;12.33;100.00;100573.66;1752776;80;21462;-60
2022/10/14 06:49:23;;;;;;;14.43;8.83;;;;;;;12.34;100.00;100575.36;1763224;80;21550;-61
2022/10/14 06:51:51;;;;;;;14.35;9.18;;;;;;;12.40;100.00;100579.12;1737648;80;21856;-61
2022/10/14 06:54:19;;;;;;;16.60;9.40;;;;;;;12.49;100.00;100576.16;1752240;80;21495;-60
2022/10/14 06:56:46;;;;;;;16.25;9.93;;;;;;;12.58;100.00;100569.23;1760952;80;21566;-61
2022/10/14 06:59:12;;;;;;;13.05;9.55;;;;;;;12.64;100.00;100576.06;1743934;80;21451;-60
2022/10/14 07:01:39;;;;;;;13.35;9.15;;;;;;;12.65;100.00;100579.94;1750842;80;21109;-62
2022/10/14 07:04:05;;;;;;;17.70;10.32;;;;;;;12.66;100.00;100572.44;1744718;80;21889;-62
2022/10/14 07:06:35;;;;;;;13.18;10.03;;;;;;;12.68;100.00;100576.34;1747337;80;21068;-62
2022/10/14 07:09:03;;;;;;;12.80;9.95;;;;;;;12.73;100.00;100570.42;1735619;80;21033;-62
2022/10/14 07:11:30;;;;;;;16.80;10.55;;;;;;;12.77;100.00;100573.38;1749903;80;20975;-63
2022/10/14 07:13:58;;;;;;;15.48;10.60;;;;;;;12.84;100.00;100570.88;1751866;80;21427;-62
2022/10/14 07:16:27;;;;;;;17.37;10.90;;;;;;;12.90;100.00;100564.51;1755425;80;21600;-63
2022/10/14 07:18:55;;;;;;;20.80;10.98;;;;;;;12.92;100.00;100561.38;1747507;80;21664;-61
2022/10/14 07:21:23;;;;;;;15.70;10.80;;;;;;;12.98;100.00;100562.93;1761146;80;21483;-62
2022/10/14 07:23:49;;;;;;;15.00;11.28;;;;;;;13.01;100.00;100564.11;1758464;80;21585;-63
2022/10/14 07:26:16;;;;;;;24.43;12.15;;;;;;;13.04;100.00;100554.77;1763583;80;21506;-64
2022/10/14 07:28:43;;;;;;;17.17;11.28;;;;;;;13.12;100.00;100554.00;1762354;80;21482;-62
2022/10/14 07:31:10;;;;;;;14.55;10.58;;;;;;;13.19;100.00;100556.80;1716337;82;21014;-61
2022/10/14 07:33:37;;;;;;;17.05;10.60;;;;;;;13.24;100.00;100560.13;1766378;80;21073;-62
2022/10/14 07:36:09;;;;;;;16.70;11.70;;;;;;;13.30;100.00;100554.19;1760520;80;21582;-62
2022/10/14 07:38:38;;;;;;;20.23;10.43;;;;;;;13.35;100.00;100562.83;1752607;80;21582;-62
2022/10/14 07:41:15;;;;;;;14.28;9.85;;;;;;;13.42;100.00;100557.23;1765863;80;21886;-60
2022/10/14 07:43:37;;;;;;;16.10;9.78;;;;;;;13.52;100.00;100563.48;1760810;80;21624;-61
2022/10/14 07:46:06;;;;;;;13.55;9.35;;;;;;;13.58;100.00;100555.30;1759631;80;21518;-61
2022/10/14 07:48:34;;;;;;;13.13;9.15;;;;;;;13.61;100.00;100556.03;1750215;80;21584;-61
2022/10/14 07:51:01;;;;;;;13.53;8.63;;;;;;;13.72;100.00;100554.75;1760018;80;21415;-61
2022/10/14 07:53:28;;;;;;;9.95;8.33;;;;;;;13.82;100.00;100551.67;1758222;80;21761;-62
2022/10/14 07:55:58;;;;;;;14.35;7.92;;;;;;;13.93;100.00;100551.66;1747395;80;21652;-63
2022/10/14 07:58:28;;;;;;;13.38;6.78;;;;;;;14.06;100.00;100550.69;1754862;79;21056;-62
2022/10/14 08:00:55;;;;;;;11.75;6.60;;;;;;;14.11;100.00;100542.07;1751048;79;21001;-62
2022/10/14 08:03:22;;;;;;;11.38;6.97;;;;;;;14.19;100.00;100551.41;1758245;80;21502;-62
2022/10/14 08:06:00;;;;;;;9.75;5.75;;;;;;;14.25;100.00;100538.84;1763510;80;21491;-62
2022/10/14 08:08:27;;;;;;;8.30;5.50;;;;;;;14.26;100.00;100540.55;1742134;80;21482;-62
2022/10/14 08:11:14;;;;;;;10.53;5.65;;;;;;;14.26;100.00;100536.14;1769997;80;21475;-67
2022/10/14 08:13:40;;;;;;;13.83;6.00;;;;;;;14.35;100.00;100537.06;1752663;80;21522;-63
2022/10/14 08:16:20;;;;;;;8.98;5.28;;;;;;;14.45;100.00;100534.86;1764668;80;21033;-63
2022/10/14 08:18:48;;;;;;;7.78;4.40;;;;;;;14.53;100.00;100535.36;1762566;80;21526;-64
2022/10/14 08:21:15;;;;;;;6.65;4.72;;;;;;;14.56;100.00;100529.95;1760543;80;21556;-63
2022/10/14 08:23:42;;;;;;;8.85;4.83;;;;;;;14.54;100.00;100534.89;1754992;80;21526;-65
2022/10/14 08:26:31;;;;;;;7.53;4.60;;;;;;;14.50;100.00;100529.34;1759421;80;21531;-62
2022/10/14 08:29:00;;;;;;;8.03;4.62;;;;;;;14.51;100.00;100533.73;1748344;80;21577;-62
2022/10/14 08:31:28;;;;;;;7.28;4.50;;;;;;;14.44;100.00;100526.98;1752405;80;21550;-62
2022/10/14 08:33:55;;;;;;;8.77;4.90;;;;;;;14.40;100.00;100532.41;1755037;80;21585;-61
2022/10/14 08:36:22;;;;;;;8.68;5.08;;;;;;;14.38;100.00;100534.26;1753515;80;21467;-64
2022/10/14 08:38:51;;;;;;;10.03;5.13;;;;;;;14.48;100.00;100531.20;1747859;80;21458;-63
2022/10/14 08:41:39;;;;;;;10.70;5.00;;;;;;;14.57;100.00;100529.03;1752038;80;22231;-62
2022/10/14 08:44:12;;;;;;;;;;;;;;;14.61;100.00;100523.14;1744774;80;21690;-62
2022/10/14 08:46:44;;;;;;;14.55;6.05;;;;;;;14.68;100.00;100531.67;1747128;80;20709;-63
2022/10/14 08:49:23;;;;;;;9.13;6.50;;;;;;;14.87;100.00;100521.09;1749364;80;21069;-62
2022/10/14 08:51:58;;;;;;;9.13;5.87;;;;;;;15.04;100.00;100520.30;1753024;80;21467;-63
2022/10/14 08:54:37;;;;;;;11.33;7.00;;;;;;;15.18;100.00;100523.12;1757560;80;21514;-61
2022/10/14 08:57:05;;;;;;;14.05;7.30;;;;;;;15.26;100.00;100526.77;1745345;80;21096;-62
2022/10/14 08:59:36;;;;;;;9.73;7.12;;;;;;;15.27;100.00;100517.86;1752873;80;21436;-62
2022/10/14 09:02:19;;;;;;;7.55;6.00;;;;;;;15.23;100.00;100517.63;1753996;80;21610;-61
2022/10/14 09:04:46;;;;;;;7.55;5.28;;;;;;;15.19;100.00;100521.73;1751911;80;21525;-62
2022/10/14 09:07:16;;;;;;;10.93;5.60;;;;;;;15.19;100.00;100519.09;1750856;80;21614;-63
2022/10/14 09:09:48;;;;;;;13.40;7.40;;;;;;;15.31;100.00;100513.69;1748427;80;21482;-62
2022/10/14 09:12:19;;;;;;;9.83;5.85;;;;;;;15.46;100.00;100503.25;1758293;80;21404;-63
2022/10/14 09:15:08;;;;;;;7.67;5.22;;;;;;;15.61;100.00;100511.75;1750765;80;20946;-62
2022/10/14 09:18:07;;;;;;;9.20;6.25;;;;;;;15.74;100.00;100513.36;1742170;80;21120;-63
2022/10/14 09:20:34;;;;;;;10.23;6.90;;;;;;;15.74;100.00;100510.23;1758481;80;21483;-63
2022/10/14 09:26:10;;;;;;;7.10;5.03;;;;;;;15.74;100.00;100503.61;1615603;86;21487;-61
2022/10/14 09:28:41;;;;;;;9.65;5.65;;;;;;;15.68;100.00;100504.37;1607134;87;21760;-61
2022/10/14 09:31:10;;;;;;;7.90;4.70;;;;;;;15.67;100.00;100501.31;1617946;86;21570;-62
2022/10/14 09:33:40;;;;;;;7.28;4.87;;;;;;;15.64;100.00;100501.48;1623530;86;21573;-65
2022/10/14 09:36:19;;;;;;;7.37;5.10;;;;;;;15.56;100.00;100501.87;1614800;87;21839;-62
2022/10/14 09:38:50;;;;;;;9.90;5.15;;;;;;;15.49;100.00;100502.63;1624121;86;21440;-62
2022/10/14 09:41:16;;;;;;;9.60;4.92;;;;;;;15.49;100.00;100499.98;1606823;86;21459;-64
2022/10/14 09:44:04;;;;;;;;;;;;;;;15.55;100.00;100498.81;1621313;86;21534;-62
2022/10/14 09:46:31;;;;;;;11.48;4.65;;;;;;;15.55;100.00;100498.34;1609889;86;26838;-64
2022/10/14 09:48:57;;;;;;;7.78;4.47;;;;;;;15.58;100.00;100492.90;1626902;86;21745;-62
2022/10/14 09:51:30;;;;;;;10.68;5.58;;;;;;;15.62;100.00;100491.43;1624832;86;21033;-62
2022/10/14 09:54:00;;;;;;;7.65;5.17;;;;;;;15.60;100.00;100488.85;1633397;86;21034;-61
2022/10/14 09:56:46;;;;;;;7.87;5.03;;;;;;;15.63;100.00;100492.66;1631828;86;21054;-63
2022/10/14 09:59:22;;;;;;;6.10;4.95;;;;;;;15.65;100.00;100485.95;1635339;86;21432;-61
2022/10/14 10:01:53;;;;;;;6.83;5.33;;;;;;;15.66;100.00;100487.69;1630260;85;21801;-62
2022/10/14 10:04:45;;;;;;;8.03;5.37;;;;;;;15.67;100.00;100490.70;1600450;87;21439;-62
2022/10/14 10:07:29;;;;;;;7.47;4.60;;;;;;;15.67;100.00;100488.94;1632175;85;21526;-63
2022/10/14 10:09:57;;;;;;;7.30;4.05;;;;;;;15.72;100.00;100488.22;1612510;86;21559;-63
2022/10/14 10:12:34;;;;;;;6.47;4.22;;;;;;;15.71;100.00;100493.63;1631806;85;21519;-64
2022/10/14 10:15:04;;;;;;;6.47;4.15;;;;;;;15.73;100.00;100490.42;1632403;86;21739;-62
2022/10/14 10:17:39;;;;;;;7.20;4.33;;;;;;;15.72;100.00;100482.06;1633914;86;21466;-62
2022/10/14 10:20:30;;;;;;;5.90;4.22;;;;;;;15.74;100.00;100486.84;1633906;86;21038;-63
2022/10/14 10:22:56;;;;;;;5.87;4.30;;;;;;;15.79;100.00;100490.61;1630260;86;21519;-63
2022/10/14 10:25:26;;;;;;;6.53;4.30;;;;;;;15.76;100.00;100493.81;1655053;84;21432;-63
2022/10/14 10:27:57;;;;;;;6.87;4.15;;;;;;;15.75;100.00;100486.78;1666614;85;21895;-64
2022/10/14 10:30:32;;;;;;;4.95;3.50;;;;;;;15.79;100.00;100486.62;1659219;85;21423;-63
2022/10/14 10:33:51;;;;;;;8.03;4.28;;;;;;;15.77;100.00;100488.03;1630516;85;21469;-62
2022/10/14 10:36:34;;;;;;;7.65;4.10;;;;;;;15.77;100.00;100488.03;1661693;85;22049;-62
2022/10/14 10:39:15;;;;;;;10.65;4.58;;;;;;;15.80;100.00;100488.33;1664379;85;20961;-61
2022/10/14 10:42:03;;;;;;;12.00;4.37;;;;;;;15.80;100.00;100485.20;1659912;85;21735;-62
2022/10/14 10:44:51;;;;;;;5.70;3.65;;;;;;;15.81;100.00;100481.63;1633308;85;21518;-63
2022/10/14 10:47:33;;;;;;;6.65;4.00;;;;;;;15.84;100.00;100473.53;1665069;85;21557;-62
2022/10/14 10:50:28;;;;;;;9.28;4.67;;;;;;;15.94;100.00;100473.42;1612254;85;21466;-62
2022/10/14 10:53:12;;;;;;;4.60;3.80;;;;;;;16.03;100.00;100475.20;1631469;85;21456;-64
2022/10/14 10:56:00;;;;;;;5.42;3.98;;;;;;;16.14;100.00;100470.19;1627952;87;21925;-62
2022/10/14 10:59:00;;;;;;;7.30;3.40;;;;;;;16.28;100.00;100470.80;1631354;85;21531;-62
2022/10/14 11:01:57;;;;;;;7.92;3.10;;;;;;;16.46;100.00;100464.52;1632370;86;21432;-60
2022/10/14 11:04:43;;;;;;;6.17;3.40;;;;;;;16.62;99.89;100469.83;1628488;86;21447;-61
2022/10/14 11:13:51;;;;;;;5.55;2.98;;;;;;;16.73;92.89;100455.48;1652376;85;21637;-62
2022/10/14 11:16:29;;;;;;;3.50;2.65;;;;;;;16.80;93.09;100453.36;1650132;85;21518;-62
2022/10/14 11:19:16;;;;;;;3.60;2.95;;;;;;;16.89;91.11;100450.20;1655026;84;21025;-61
2022/10/14 11:22:04;;;;;;;7.03;2.95;;;;;;;16.93;90.02;100446.89;1652782;85;21562;-63
2022/10/14 11:24:57;;;;;;;7.87;3.00;;;;;;;16.93;89.84;100442.47;1653951;85;21518;-62
2022/10/14 11:27:44;;;;;;;5.37;2.60;;;;;;;16.88;88.04;100441.02;1651929;85;20981;-67
2022/10/14 11:30:16;;;;;;;4.97;3.15;;;;;;;16.86;88.68;100447.73;1659530;85;21011;-66
2022/10/14 11:32:56;;;;;;;6.35;2.83;;;;;;;16.81;88.61;100440.45;1650562;85;21066;-65
2022/10/14 11:35:40;;;;;;;6.60;3.20;;;;;;;16.79;87.64;100445.48;1666332;85;21038;-63
2022/10/14 11:38:47;;;;;;;5.10;2.75;;;;;;;16.70;87.72;100442.85;1665663;85;21794;-65
2022/10/14 11:41:46;;;;;;;5.62;3.05;;;;;;;16.65;87.42;100434.27;1662628;83;21595;-63
2022/10/14 11:44:39;;;;;;;7.42;3.47;;;;;;;16.63;86.13;100435.71;1664658;83;21652;-65
2022/10/14 11:47:14;;;;;;;3.22;2.50;;;;;;;16.58;86.54;100434.25;1662959;83;21558;-62
2022/10/14 11:49:55;;;;;;;5.85;2.50;;;;;;;16.50;85.38;100435.97;1628804;86;21427;-61
2022/10/14 11:52:29;;;;;;;2.85;2.52;;;;;;;16.45;84.81;100440.70;1660935;85;21857;-63